sensor_id;sensor_type;location;lat;lon;timestamp;temperature;humidity
360;DHT22;168;48.872;9.226;2022-11-21T00:01:00;7.00;99.90
360;DHT22;168;48.872;9.226;2022-11-21T00:03:28;7.00;99.90
360;DHT22;168;48.872;9.226;2022-11-21T00:05:56;7.00;99.90
360;DHT22;168;48.872;9.226;2022-11-21T00:08:23;7.10;99.90
360;DHT22;168;48.872;9.226;2022-11-21T00:10:51;7.10;99.80
360;DHT22;168;48.872;9.226;2022-11-21T00:13:19;7.10;99.90
360;DHT22;168;48.872;9.226;2022-11-21T00:15:47;7.20;99.90
360;DHT22;168;48.872;9.226;2022-11-21T00:18:17;7.30;99.60
360;DHT22;168;48.872;9.226;2022-11-21T00:20:44;7.30;99.90
360;DHT22;168;48.872;9.226;2022-11-21T00:23:14;7.30;99.80
360;DHT22;168;48.872;9.226;2022-11-21T00:25:41;7.30;99.90
360;DHT22;168;48.872;9.226;2022-11-21T00:28:09;7.20;99.90
360;DHT22;168;48.872;9.226;2022-11-21T00:30:36;7.10;99.90
360;DHT22;168;48.872;9.226;2022-11-21T00:33:04;7.10;99.90
360;DHT22;168;48.872;9.226;2022-11-21T00:35:32;7.20;99.90
360;DHT22;168;48.872;9.226;2022-11-21T00:38:00;7.20;99.90
360;DHT22;168;48.872;9.226;2022-11-21T00:40:28;7.20;99.90
360;DHT22;168;48.872;9.226;2022-11-21T00:42:55;7.20;99.90
360;DHT22;168;48.872;9.226;2022-11-21T00:45:23;7.20;99.90
360;DHT22;168;48.872;9.226;2022-11-21T00:47:51;7.20;99.90
360;DHT22;168;48.872;9.226;2022-11-21T00:50:18;7.10;99.90
360;DHT22;168;48.872;9.226;2022-11-21T00:52:48;7.10;99.90
360;DHT22;168;48.872;9.226;2022-11-21T00:55:15;7.00;99.90
360;DHT22;168;48.872;9.226;2022-11-21T00:57:43;7.00;99.90
360;DHT22;168;48.872;9.226;2022-11-21T01:00:12;6.90;99.90
360;DHT22;168;48.872;9.226;2022-11-21T01:02:39;7.00;99.90
360;DHT22;168;48.872;9.226;2022-11-21T01:05:08;7.00;99.90
360;DHT22;168;48.872;9.226;2022-11-21T01:07:35;7.00;99.90
360;DHT22;168;48.872;9.226;2022-11-21T01:10:05;7.10;99.90
360;DHT22;168;48.872;9.226;2022-11-21T01:12:32;7.10;99.90
360;DHT22;168;48.872;9.226;2022-11-21T01:15:00;7.10;99.90
360;DHT22;168;48.872;9.226;2022-11-21T01:17:28;7.10;99.90
360;DHT22;168;48.872;9.226;2022-11-21T01:19:58;7.10;99.90
360;DHT22;168;48.872;9.226;2022-11-21T01:22:25;7.10;99.90
360;DHT22;168;48.872;9.226;2022-11-21T01:24:53;7.00;99.90
360;DHT22;168;48.872;9.226;2022-11-21T01:27:22;7.10;99.90
360;DHT22;168;48.872;9.226;2022-11-21T01:29:49;7.20;99.90
360;DHT22;168;48.872;9.226;2022-11-21T01:32:18;7.20;99.90
360;DHT22;168;48.872;9.226;2022-11-21T01:34:45;7.20;99.90
360;DHT22;168;48.872;9.226;2022-11-21T01:37:13;7.10;99.90
360;DHT22;168;48.872;9.226;2022-11-21T01:39:40;7.10;99.90
360;DHT22;168;48.872;9.226;2022-11-21T01:42:08;7.10;99.90
360;DHT22;168;48.872;9.226;2022-11-21T01:44:51;7.10;99.90
360;DHT22;168;48.872;9.226;2022-11-21T01:47:19;7.10;99.90
360;DHT22;168;48.872;9.226;2022-11-21T01:49:48;7.10;99.90
360;DHT22;168;48.872;9.226;2022-11-21T01:52:19;7.10;99.80
360;DHT22;168;48.872;9.226;2022-11-21T01:54:51;7.10;99.90
360;DHT22;168;48.872;9.226;2022-11-21T01:57:22;7.00;99.90
360;DHT22;168;48.872;9.226;2022-11-21T01:59:59;6.90;99.80
360;DHT22;168;48.872;9.226;2022-11-21T02:02:30;6.60;98.90
360;DHT22;168;48.872;9.226;2022-11-21T02:04:59;6.50;98.90
360;DHT22;168;48.872;9.226;2022-11-21T02:07:31;6.40;98.90
360;DHT22;168;48.872;9.226;2022-11-21T02:10:01;6.40;98.00
360;DHT22;168;48.872;9.226;2022-11-21T02:12:32;6.30;97.00
360;DHT22;168;48.872;9.226;2022-11-21T02:15:01;6.30;96.60
360;DHT22;168;48.872;9.226;2022-11-21T02:17:30;6.30;96.90
360;DHT22;168;48.872;9.226;2022-11-21T02:19:59;6.20;96.70
360;DHT22;168;48.872;9.226;2022-11-21T02:22:35;6.30;96.60
360;DHT22;168;48.872;9.226;2022-11-21T02:25:11;6.30;98.30
360;DHT22;168;48.872;9.226;2022-11-21T02:27:40;6.30;97.60
360;DHT22;168;48.872;9.226;2022-11-21T02:30:09;6.20;97.40
360;DHT22;168;48.872;9.226;2022-11-21T02:32:39;6.30;97.80
360;DHT22;168;48.872;9.226;2022-11-21T02:35:08;6.30;98.30
360;DHT22;168;48.872;9.226;2022-11-21T02:37:36;6.20;97.60
360;DHT22;168;48.872;9.226;2022-11-21T02:40:09;6.30;98.20
360;DHT22;168;48.872;9.226;2022-11-21T02:42:42;6.30;98.30
360;DHT22;168;48.872;9.226;2022-11-21T02:45:14;6.40;98.30
360;DHT22;168;48.872;9.226;2022-11-21T02:47:46;6.40;98.50
360;DHT22;168;48.872;9.226;2022-11-21T02:50:19;6.40;98.20
360;DHT22;168;48.872;9.226;2022-11-21T02:52:46;6.40;98.20
360;DHT22;168;48.872;9.226;2022-11-21T02:55:15;6.40;98.40
360;DHT22;168;48.872;9.226;2022-11-21T02:57:43;6.40;98.40
360;DHT22;168;48.872;9.226;2022-11-21T03:00:11;6.50;99.20
360;DHT22;168;48.872;9.226;2022-11-21T03:02:39;6.50;99.30
360;DHT22;168;48.872;9.226;2022-11-21T03:05:08;6.40;99.40
360;DHT22;168;48.872;9.226;2022-11-21T03:07:36;6.40;99.50
360;DHT22;168;48.872;9.226;2022-11-21T03:10:04;6.30;99.00
360;DHT22;168;48.872;9.226;2022-11-21T03:12:34;6.40;99.30
360;DHT22;168;48.872;9.226;2022-11-21T03:15:02;6.40;99.90
360;DHT22;168;48.872;9.226;2022-11-21T03:17:30;6.40;99.90
360;DHT22;168;48.872;9.226;2022-11-21T03:19:57;6.40;99.90
360;DHT22;168;48.872;9.226;2022-11-21T03:22:25;6.30;99.90
360;DHT22;168;48.872;9.226;2022-11-21T03:24:52;6.30;99.90
360;DHT22;168;48.872;9.226;2022-11-21T03:27:20;6.20;99.90
360;DHT22;168;48.872;9.226;2022-11-21T03:29:49;6.10;99.90
360;DHT22;168;48.872;9.226;2022-11-21T03:32:16;6.00;99.40
360;DHT22;168;48.872;9.226;2022-11-21T03:34:44;6.10;99.60
360;DHT22;168;48.872;9.226;2022-11-21T03:37:12;6.10;99.60
360;DHT22;168;48.872;9.226;2022-11-21T03:39:39;6.10;99.80
360;DHT22;168;48.872;9.226;2022-11-21T03:42:07;6.20;99.90
360;DHT22;168;48.872;9.226;2022-11-21T03:44:34;6.20;99.90
360;DHT22;168;48.872;9.226;2022-11-21T03:47:03;6.10;99.90
360;DHT22;168;48.872;9.226;2022-11-21T03:49:31;6.20;99.80
360;DHT22;168;48.872;9.226;2022-11-21T03:51:58;6.30;99.80
360;DHT22;168;48.872;9.226;2022-11-21T03:54:25;6.30;99.70
360;DHT22;168;48.872;9.226;2022-11-21T03:56:53;6.40;99.70
360;DHT22;168;48.872;9.226;2022-11-21T03:59:20;6.40;99.70
360;DHT22;168;48.872;9.226;2022-11-21T04:01:48;6.50;99.90
360;DHT22;168;48.872;9.226;2022-11-21T04:04:17;6.60;99.90
360;DHT22;168;48.872;9.226;2022-11-21T04:06:44;6.60;99.90
360;DHT22;168;48.872;9.226;2022-11-21T04:09:12;6.60;99.90
360;DHT22;168;48.872;9.226;2022-11-21T04:11:40;6.70;99.90
360;DHT22;168;48.872;9.226;2022-11-21T04:14:09;6.70;99.90
360;DHT22;168;48.872;9.226;2022-11-21T04:16:36;6.70;99.90
360;DHT22;168;48.872;9.226;2022-11-21T04:19:04;6.80;99.90
360;DHT22;168;48.872;9.226;2022-11-21T04:21:33;6.90;99.90
360;DHT22;168;48.872;9.226;2022-11-21T04:24:00;6.90;99.90
360;DHT22;168;48.872;9.226;2022-11-21T04:26:27;7.00;99.90
360;DHT22;168;48.872;9.226;2022-11-21T04:28:56;7.00;99.90
360;DHT22;168;48.872;9.226;2022-11-21T04:31:24;7.00;99.90
360;DHT22;168;48.872;9.226;2022-11-21T04:33:51;7.00;99.90
360;DHT22;168;48.872;9.226;2022-11-21T04:36:18;7.00;99.90
360;DHT22;168;48.872;9.226;2022-11-21T04:38:47;7.00;99.90
360;DHT22;168;48.872;9.226;2022-11-21T04:41:14;7.00;99.90
360;DHT22;168;48.872;9.226;2022-11-21T04:43:42;7.10;99.90
360;DHT22;168;48.872;9.226;2022-11-21T04:46:09;7.10;99.90
360;DHT22;168;48.872;9.226;2022-11-21T04:48:37;7.00;99.90
360;DHT22;168;48.872;9.226;2022-11-21T04:51:04;7.00;99.90
360;DHT22;168;48.872;9.226;2022-11-21T04:53:32;7.00;99.90
360;DHT22;168;48.872;9.226;2022-11-21T04:56:04;6.80;99.70
360;DHT22;168;48.872;9.226;2022-11-21T04:58:32;6.90;99.90
360;DHT22;168;48.872;9.226;2022-11-21T05:01:04;6.90;99.90
360;DHT22;168;48.872;9.226;2022-11-21T05:03:32;6.90;99.80
360;DHT22;168;48.872;9.226;2022-11-21T05:06:00;6.90;99.80
360;DHT22;168;48.872;9.226;2022-11-21T05:08:27;6.90;99.90
360;DHT22;168;48.872;9.226;2022-11-21T05:10:55;7.00;99.90
360;DHT22;168;48.872;9.226;2022-11-21T05:13:53;7.00;99.90
360;DHT22;168;48.872;9.226;2022-11-21T05:16:20;6.90;99.50
360;DHT22;168;48.872;9.226;2022-11-21T05:18:48;7.00;99.40
360;DHT22;168;48.872;9.226;2022-11-21T05:21:15;7.10;99.50
360;DHT22;168;48.872;9.226;2022-11-21T05:23:43;7.10;99.60
360;DHT22;168;48.872;9.226;2022-11-21T05:26:10;7.20;99.90
360;DHT22;168;48.872;9.226;2022-11-21T05:28:38;7.30;99.90
360;DHT22;168;48.872;9.226;2022-11-21T05:31:06;7.40;99.90
360;DHT22;168;48.872;9.226;2022-11-21T05:33:34;7.40;99.90
360;DHT22;168;48.872;9.226;2022-11-21T05:36:01;7.30;99.90
360;DHT22;168;48.872;9.226;2022-11-21T05:38:29;7.40;99.90
360;DHT22;168;48.872;9.226;2022-11-21T05:40:56;7.40;99.90
360;DHT22;168;48.872;9.226;2022-11-21T05:43:23;7.50;99.90
360;DHT22;168;48.872;9.226;2022-11-21T05:46:10;7.60;99.90
360;DHT22;168;48.872;9.226;2022-11-21T05:48:37;7.70;99.90
360;DHT22;168;48.872;9.226;2022-11-21T05:51:05;7.70;99.90
360;DHT22;168;48.872;9.226;2022-11-21T05:53:33;7.70;99.90
360;DHT22;168;48.872;9.226;2022-11-21T05:56:02;7.70;99.90
360;DHT22;168;48.872;9.226;2022-11-21T05:58:30;7.70;99.90
360;DHT22;168;48.872;9.226;2022-11-21T06:00:58;7.70;99.90
360;DHT22;168;48.872;9.226;2022-11-21T06:03:29;7.80;99.90
360;DHT22;168;48.872;9.226;2022-11-21T06:05:59;7.70;99.90
360;DHT22;168;48.872;9.226;2022-11-21T06:08:27;7.70;99.90
360;DHT22;168;48.872;9.226;2022-11-21T06:10:55;7.60;99.90
360;DHT22;168;48.872;9.226;2022-11-21T06:13:23;7.60;99.90
360;DHT22;168;48.872;9.226;2022-11-21T06:15:52;7.50;99.90
360;DHT22;168;48.872;9.226;2022-11-21T06:18:20;7.60;99.90
360;DHT22;168;48.872;9.226;2022-11-21T06:20:48;7.50;99.90
360;DHT22;168;48.872;9.226;2022-11-21T06:23:16;7.40;99.90
360;DHT22;168;48.872;9.226;2022-11-21T06:25:44;7.30;99.90
360;DHT22;168;48.872;9.226;2022-11-21T06:28:12;7.30;99.90
360;DHT22;168;48.872;9.226;2022-11-21T06:30:39;7.40;99.90
360;DHT22;168;48.872;9.226;2022-11-21T06:33:06;7.40;99.90
360;DHT22;168;48.872;9.226;2022-11-21T06:35:36;7.30;99.90
360;DHT22;168;48.872;9.226;2022-11-21T06:38:06;7.30;99.90
360;DHT22;168;48.872;9.226;2022-11-21T06:40:33;7.30;99.90
360;DHT22;168;48.872;9.226;2022-11-21T06:43:01;7.30;99.90
360;DHT22;168;48.872;9.226;2022-11-21T06:45:28;7.30;99.90
360;DHT22;168;48.872;9.226;2022-11-21T06:47:56;7.30;99.90
360;DHT22;168;48.872;9.226;2022-11-21T06:50:23;7.40;99.90
360;DHT22;168;48.872;9.226;2022-11-21T06:52:51;7.30;99.90
360;DHT22;168;48.872;9.226;2022-11-21T06:55:20;7.30;99.90
360;DHT22;168;48.872;9.226;2022-11-21T06:57:48;7.20;99.90
360;DHT22;168;48.872;9.226;2022-11-21T07:00:16;7.20;99.90
360;DHT22;168;48.872;9.226;2022-11-21T07:02:46;7.30;99.90
360;DHT22;168;48.872;9.226;2022-11-21T07:05:13;7.20;99.90
360;DHT22;168;48.872;9.226;2022-11-21T07:07:41;7.30;99.90
360;DHT22;168;48.872;9.226;2022-11-21T07:10:09;7.30;99.90
360;DHT22;168;48.872;9.226;2022-11-21T07:12:38;7.30;99.90
360;DHT22;168;48.872;9.226;2022-11-21T07:15:22;7.30;99.90
360;DHT22;168;48.872;9.226;2022-11-21T07:17:50;7.30;99.90
360;DHT22;168;48.872;9.226;2022-11-21T07:20:21;7.30;99.90
360;DHT22;168;48.872;9.226;2022-11-21T07:42:33;7.70;99.90
360;DHT22;168;48.872;9.226;2022-11-21T07:45:00;7.70;99.90
360;DHT22;168;48.872;9.226;2022-11-21T07:47:29;7.70;99.90
360;DHT22;168;48.872;9.226;2022-11-21T07:49:56;7.70;99.90
360;DHT22;168;48.872;9.226;2022-11-21T07:52:24;7.70;99.90
360;DHT22;168;48.872;9.226;2022-11-21T07:54:52;7.90;99.90
360;DHT22;168;48.872;9.226;2022-11-21T07:57:19;8.10;99.90
360;DHT22;168;48.872;9.226;2022-11-21T07:59:48;8.40;99.90
360;DHT22;168;48.872;9.226;2022-11-21T08:02:17;8.60;99.70
360;DHT22;168;48.872;9.226;2022-11-21T08:04:45;8.80;99.10
360;DHT22;168;48.872;9.226;2022-11-21T08:07:13;9.00;98.80
360;DHT22;168;48.872;9.226;2022-11-21T08:09:41;9.20;98.30
360;DHT22;168;48.872;9.226;2022-11-21T08:12:10;9.30;97.50
360;DHT22;168;48.872;9.226;2022-11-21T08:14:40;9.40;97.00
360;DHT22;168;48.872;9.226;2022-11-21T08:17:12;9.30;97.30
360;DHT22;168;48.872;9.226;2022-11-21T08:19:39;9.30;97.70
360;DHT22;168;48.872;9.226;2022-11-21T08:22:07;9.50;97.20
360;DHT22;168;48.872;9.226;2022-11-21T08:24:34;9.70;96.70
360;DHT22;168;48.872;9.226;2022-11-21T08:27:02;9.70;96.10
360;DHT22;168;48.872;9.226;2022-11-21T08:29:29;9.70;95.60
360;DHT22;168;48.872;9.226;2022-11-21T08:31:57;9.70;95.90
360;DHT22;168;48.872;9.226;2022-11-21T08:34:26;9.70;95.70
360;DHT22;168;48.872;9.226;2022-11-21T08:36:53;9.70;95.50
360;DHT22;168;48.872;9.226;2022-11-21T08:39:23;9.60;95.40
360;DHT22;168;48.872;9.226;2022-11-21T08:41:51;9.70;95.40
360;DHT22;168;48.872;9.226;2022-11-21T08:44:31;9.70;95.40
360;DHT22;168;48.872;9.226;2022-11-21T08:47:00;9.70;95.00
360;DHT22;168;48.872;9.226;2022-11-21T08:49:29;9.70;94.50
360;DHT22;168;48.872;9.226;2022-11-21T08:51:56;9.70;94.50
360;DHT22;168;48.872;9.226;2022-11-21T08:54:26;9.70;95.60
360;DHT22;168;48.872;9.226;2022-11-21T08:56:53;9.80;94.70
360;DHT22;168;48.872;9.226;2022-11-21T08:59:21;9.90;94.50
360;DHT22;168;48.872;9.226;2022-11-21T09:01:48;9.90;90.60
360;DHT22;168;48.872;9.226;2022-11-21T09:04:18;9.80;89.60
360;DHT22;168;48.872;9.226;2022-11-21T09:06:46;9.60;89.30
360;DHT22;168;48.872;9.226;2022-11-21T09:09:14;9.50;89.90
360;DHT22;168;48.872;9.226;2022-11-21T09:11:41;9.30;91.80
360;DHT22;168;48.872;9.226;2022-11-21T09:14:09;9.30;91.70
360;DHT22;168;48.872;9.226;2022-11-21T09:16:53;9.20;92.00
360;DHT22;168;48.872;9.226;2022-11-21T09:19:38;9.20;92.10
360;DHT22;168;48.872;9.226;2022-11-21T09:22:07;9.20;91.40
360;DHT22;168;48.872;9.226;2022-11-21T09:24:35;9.20;91.50
360;DHT22;168;48.872;9.226;2022-11-21T09:27:02;9.10;91.90
360;DHT22;168;48.872;9.226;2022-11-21T09:29:29;9.10;92.30
360;DHT22;168;48.872;9.226;2022-11-21T09:31:57;9.10;92.70
360;DHT22;168;48.872;9.226;2022-11-21T09:34:25;9.20;92.10
360;DHT22;168;48.872;9.226;2022-11-21T09:36:52;9.30;92.20
360;DHT22;168;48.872;9.226;2022-11-21T09:39:21;9.30;92.40
360;DHT22;168;48.872;9.226;2022-11-21T09:41:58;9.40;91.80
360;DHT22;168;48.872;9.226;2022-11-21T09:47:23;9.50;91.90
360;DHT22;168;48.872;9.226;2022-11-21T09:49:56;9.70;89.90
360;DHT22;168;48.872;9.226;2022-11-21T09:52:29;9.80;90.00
360;DHT22;168;48.872;9.226;2022-11-21T10:11:58;9.80;89.90
360;DHT22;168;48.872;9.226;2022-11-21T10:14:52;10.00;90.60
360;DHT22;168;48.872;9.226;2022-11-21T10:17:26;10.00;89.90
360;DHT22;168;48.872;9.226;2022-11-21T10:20:16;10.20;89.10
360;DHT22;168;48.872;9.226;2022-11-21T10:25:24;10.50;88.50
360;DHT22;168;48.872;9.226;2022-11-21T10:27:56;10.80;86.70
360;DHT22;168;48.872;9.226;2022-11-21T10:30:24;10.90;85.40
360;DHT22;168;48.872;9.226;2022-11-21T10:32:54;11.10;85.50
360;DHT22;168;48.872;9.226;2022-11-21T10:35:24;11.10;84.90
360;DHT22;168;48.872;9.226;2022-11-21T10:37:53;11.30;83.80
360;DHT22;168;48.872;9.226;2022-11-21T10:40:35;11.60;82.30
360;DHT22;168;48.872;9.226;2022-11-21T10:43:08;11.70;81.60
360;DHT22;168;48.872;9.226;2022-11-21T10:45:59;11.90;83.30
360;DHT22;168;48.872;9.226;2022-11-21T10:48:26;11.90;80.20
360;DHT22;168;48.872;9.226;2022-11-21T10:51:09;11.90;80.70
360;DHT22;168;48.872;9.226;2022-11-21T10:53:38;11.80;79.50
360;DHT22;168;48.872;9.226;2022-11-21T10:56:24;11.70;80.00
360;DHT22;168;48.872;9.226;2022-11-21T10:58:54;11.60;82.40
360;DHT22;168;48.872;9.226;2022-11-21T11:01:25;11.40;87.10
360;DHT22;168;48.872;9.226;2022-11-21T11:04:07;10.70;92.80
360;DHT22;168;48.872;9.226;2022-11-21T11:06:43;9.90;98.20
360;DHT22;168;48.872;9.226;2022-11-21T11:09:25;9.10;98.60
360;DHT22;168;48.872;9.226;2022-11-21T11:12:26;8.30;96.60
360;DHT22;168;48.872;9.226;2022-11-21T11:15:19;7.80;92.40
360;DHT22;168;48.872;9.226;2022-11-21T11:17:52;7.70;90.00
360;DHT22;168;48.872;9.226;2022-11-21T11:20:35;7.60;88.30
360;DHT22;168;48.872;9.226;2022-11-21T11:23:21;7.70;88.80
360;DHT22;168;48.872;9.226;2022-11-21T11:25:51;7.70;88.20
360;DHT22;168;48.872;9.226;2022-11-21T11:28:19;7.60;87.40
360;DHT22;168;48.872;9.226;2022-11-21T11:30:51;7.80;85.60
360;DHT22;168;48.872;9.226;2022-11-21T11:33:36;7.90;86.80
360;DHT22;168;48.872;9.226;2022-11-21T11:36:14;7.80;85.30
360;DHT22;168;48.872;9.226;2022-11-21T11:38:46;7.90;83.10
360;DHT22;168;48.872;9.226;2022-11-21T11:41:31;8.20;81.00
360;DHT22;168;48.872;9.226;2022-11-21T11:44:30;8.40;80.00
360;DHT22;168;48.872;9.226;2022-11-21T11:47:23;8.50;79.50
360;DHT22;168;48.872;9.226;2022-11-21T11:49:59;8.50;80.20
360;DHT22;168;48.872;9.226;2022-11-21T11:52:49;8.60;80.70
360;DHT22;168;48.872;9.226;2022-11-21T11:55:21;8.60;81.50
360;DHT22;168;48.872;9.226;2022-11-21T11:57:52;8.70;82.30
360;DHT22;168;48.872;9.226;2022-11-21T12:00:31;8.70;82.50
360;DHT22;168;48.872;9.226;2022-11-21T12:03:07;8.80;83.40
360;DHT22;168;48.872;9.226;2022-11-21T12:05:47;8.80;83.00
360;DHT22;168;48.872;9.226;2022-11-21T12:08:19;8.90;83.90
360;DHT22;168;48.872;9.226;2022-11-21T12:10:52;8.90;84.70
360;DHT22;168;48.872;9.226;2022-11-21T12:13:38;9.00;86.10
360;DHT22;168;48.872;9.226;2022-11-21T12:16:11;9.10;84.10
360;DHT22;168;48.872;9.226;2022-11-21T12:18:47;9.30;83.20
360;DHT22;168;48.872;9.226;2022-11-21T12:21:17;9.50;86.80
360;DHT22;168;48.872;9.226;2022-11-21T12:23:46;9.50;90.20
360;DHT22;168;48.872;9.226;2022-11-21T12:26:35;9.50;91.20
360;DHT22;168;48.872;9.226;2022-11-21T12:29:14;9.40;92.10
360;DHT22;168;48.872;9.226;2022-11-21T12:31:55;9.40;92.10
360;DHT22;168;48.872;9.226;2022-11-21T12:34:40;9.40;92.00
360;DHT22;168;48.872;9.226;2022-11-21T12:37:19;9.40;92.10
360;DHT22;168;48.872;9.226;2022-11-21T12:39:57;9.50;93.00
360;DHT22;168;48.872;9.226;2022-11-21T12:42:29;9.50;94.90
360;DHT22;168;48.872;9.226;2022-11-21T12:45:26;9.50;93.00
360;DHT22;168;48.872;9.226;2022-11-21T12:51:16;9.60;94.00
360;DHT22;168;48.872;9.226;2022-11-21T12:54:14;9.60;92.20
360;DHT22;168;48.872;9.226;2022-11-21T12:57:04;9.60;92.40
360;DHT22;168;48.872;9.226;2022-11-21T12:59:56;9.80;91.40
360;DHT22;168;48.872;9.226;2022-11-21T13:02:31;10.00;90.20
360;DHT22;168;48.872;9.226;2022-11-21T13:05:02;10.10;90.60
360;DHT22;168;48.872;9.226;2022-11-21T13:07:32;10.30;91.90
360;DHT22;168;48.872;9.226;2022-11-21T13:10:01;10.40;91.80
360;DHT22;168;48.872;9.226;2022-11-21T13:12:37;10.50;95.00
360;DHT22;168;48.872;9.226;2022-11-21T13:15:16;10.60;95.30
360;DHT22;168;48.872;9.226;2022-11-21T13:17:48;10.70;95.50
360;DHT22;168;48.872;9.226;2022-11-21T13:20:25;10.80;97.40
360;DHT22;168;48.872;9.226;2022-11-21T13:22:58;10.80;98.10
360;DHT22;168;48.872;9.226;2022-11-21T13:25:42;10.80;98.30
360;DHT22;168;48.872;9.226;2022-11-21T13:28:32;10.80;98.90
360;DHT22;168;48.872;9.226;2022-11-21T13:31:02;10.80;99.00
360;DHT22;168;48.872;9.226;2022-11-21T13:33:47;10.90;98.00
360;DHT22;168;48.872;9.226;2022-11-21T13:36:33;10.80;98.20
360;DHT22;168;48.872;9.226;2022-11-21T13:39:33;10.80;98.00
360;DHT22;168;48.872;9.226;2022-11-21T13:42:13;10.70;98.50
360;DHT22;168;48.872;9.226;2022-11-21T13:45:37;10.80;95.90
360;DHT22;168;48.872;9.226;2022-11-21T13:51:29;10.90;95.10
360;DHT22;168;48.872;9.226;2022-11-21T13:57:11;11.00;89.60
360;DHT22;168;48.872;9.226;2022-11-21T13:59:54;11.00;93.10
360;DHT22;168;48.872;9.226;2022-11-21T14:02:51;11.00;91.90
360;DHT22;168;48.872;9.226;2022-11-21T14:05:45;10.90;90.70
360;DHT22;168;48.872;9.226;2022-11-21T14:08:19;10.90;91.30
360;DHT22;168;48.872;9.226;2022-11-21T14:10:47;10.90;91.80
360;DHT22;168;48.872;9.226;2022-11-21T14:13:22;10.90;92.40
360;DHT22;168;48.872;9.226;2022-11-21T14:16:04;10.90;92.60
360;DHT22;168;48.872;9.226;2022-11-21T14:18:34;10.90;92.30
360;DHT22;168;48.872;9.226;2022-11-21T14:21:05;10.90;93.40
360;DHT22;168;48.872;9.226;2022-11-21T14:23:34;11.00;93.60
360;DHT22;168;48.872;9.226;2022-11-21T14:26:04;11.00;93.70
360;DHT22;168;48.872;9.226;2022-11-21T14:28:38;11.00;93.30
360;DHT22;168;48.872;9.226;2022-11-21T14:31:07;11.00;94.50
360;DHT22;168;48.872;9.226;2022-11-21T14:33:36;11.00;95.10
360;DHT22;168;48.872;9.226;2022-11-21T14:36:06;11.00;95.50
360;DHT22;168;48.872;9.226;2022-11-21T14:38:40;11.00;95.00
360;DHT22;168;48.872;9.226;2022-11-21T14:41:27;11.00;93.80
360;DHT22;168;48.872;9.226;2022-11-21T14:44:15;10.90;93.50
360;DHT22;168;48.872;9.226;2022-11-21T14:46:44;10.80;93.30
360;DHT22;168;48.872;9.226;2022-11-21T14:49:18;10.70;95.70
360;DHT22;168;48.872;9.226;2022-11-21T14:51:48;10.70;96.70
360;DHT22;168;48.872;9.226;2022-11-21T14:54:18;10.60;97.30
360;DHT22;168;48.872;9.226;2022-11-21T14:56:47;10.50;97.90
360;DHT22;168;48.872;9.226;2022-11-21T14:59:22;10.40;97.90
360;DHT22;168;48.872;9.226;2022-11-21T15:01:58;10.20;98.30
360;DHT22;168;48.872;9.226;2022-11-21T15:04:29;10.10;98.80
360;DHT22;168;48.872;9.226;2022-11-21T15:06:57;10.10;98.50
360;DHT22;168;48.872;9.226;2022-11-21T15:09:24;10.00;98.60
360;DHT22;168;48.872;9.226;2022-11-21T15:11:57;9.90;98.90
360;DHT22;168;48.872;9.226;2022-11-21T15:14:31;9.90;98.90
360;DHT22;168;48.872;9.226;2022-11-21T15:17:00;9.80;99.20
360;DHT22;168;48.872;9.226;2022-11-21T15:19:30;9.70;99.20
360;DHT22;168;48.872;9.226;2022-11-21T15:22:01;9.60;99.20
360;DHT22;168;48.872;9.226;2022-11-21T15:24:33;9.50;99.40
360;DHT22;168;48.872;9.226;2022-11-21T15:27:28;9.40;99.40
360;DHT22;168;48.872;9.226;2022-11-21T15:30:17;9.30;99.50
360;DHT22;168;48.872;9.226;2022-11-21T15:33:03;9.20;99.50
360;DHT22;168;48.872;9.226;2022-11-21T15:35:50;9.20;99.50
360;DHT22;168;48.872;9.226;2022-11-21T15:38:30;9.10;99.50
360;DHT22;168;48.872;9.226;2022-11-21T15:41:03;9.00;99.60
360;DHT22;168;48.872;9.226;2022-11-21T15:43:39;9.00;99.50
360;DHT22;168;48.872;9.226;2022-11-21T15:46:19;8.90;99.40
360;DHT22;168;48.872;9.226;2022-11-21T15:48:48;8.80;99.40
360;DHT22;168;48.872;9.226;2022-11-21T15:51:17;8.80;99.60
360;DHT22;168;48.872;9.226;2022-11-21T15:53:44;8.80;99.50
360;DHT22;168;48.872;9.226;2022-11-21T15:56:13;8.70;99.60
360;DHT22;168;48.872;9.226;2022-11-21T15:58:41;8.60;99.50
360;DHT22;168;48.872;9.226;2022-11-21T16:01:18;8.60;99.60
360;DHT22;168;48.872;9.226;2022-11-21T16:03:48;8.60;99.60
360;DHT22;168;48.872;9.226;2022-11-21T16:06:16;8.50;99.50
360;DHT22;168;48.872;9.226;2022-11-21T16:08:43;8.40;99.40
360;DHT22;168;48.872;9.226;2022-11-21T16:11:16;8.30;99.40
360;DHT22;168;48.872;9.226;2022-11-21T16:13:47;8.20;99.30
360;DHT22;168;48.872;9.226;2022-11-21T16:16:15;8.10;99.40
360;DHT22;168;48.872;9.226;2022-11-21T16:18:44;8.10;99.50
360;DHT22;168;48.872;9.226;2022-11-21T16:21:11;8.00;99.50
360;DHT22;168;48.872;9.226;2022-11-21T16:23:39;8.00;99.60
360;DHT22;168;48.872;9.226;2022-11-21T16:26:07;7.80;99.40
360;DHT22;168;48.872;9.226;2022-11-21T16:28:35;7.80;99.40
360;DHT22;168;48.872;9.226;2022-11-21T16:31:04;7.80;99.60
360;DHT22;168;48.872;9.226;2022-11-21T16:33:32;7.70;99.80
360;DHT22;168;48.872;9.226;2022-11-21T16:36:01;7.80;99.90
360;DHT22;168;48.872;9.226;2022-11-21T16:38:29;7.60;99.90
360;DHT22;168;48.872;9.226;2022-11-21T16:40:57;7.60;99.90
360;DHT22;168;48.872;9.226;2022-11-21T16:43:26;7.50;99.90
360;DHT22;168;48.872;9.226;2022-11-21T16:45:54;7.50;99.90
360;DHT22;168;48.872;9.226;2022-11-21T16:48:22;7.40;99.90
360;DHT22;168;48.872;9.226;2022-11-21T16:50:50;7.30;99.90
360;DHT22;168;48.872;9.226;2022-11-21T16:53:19;7.30;99.90
360;DHT22;168;48.872;9.226;2022-11-21T16:55:46;7.30;99.90
360;DHT22;168;48.872;9.226;2022-11-21T16:58:13;7.30;99.90
360;DHT22;168;48.872;9.226;2022-11-21T17:00:41;7.30;99.90
360;DHT22;168;48.872;9.226;2022-11-21T17:03:08;7.30;99.90
360;DHT22;168;48.872;9.226;2022-11-21T17:05:36;7.20;99.90
360;DHT22;168;48.872;9.226;2022-11-21T17:08:03;7.10;99.90
360;DHT22;168;48.872;9.226;2022-11-21T17:10:33;7.10;99.90
360;DHT22;168;48.872;9.226;2022-11-21T17:13:00;7.00;99.90
360;DHT22;168;48.872;9.226;2022-11-21T17:15:28;7.10;99.90
360;DHT22;168;48.872;9.226;2022-11-21T17:17:55;7.00;99.90
360;DHT22;168;48.872;9.226;2022-11-21T17:20:26;7.00;99.90
360;DHT22;168;48.872;9.226;2022-11-21T17:22:54;7.00;99.90
360;DHT22;168;48.872;9.226;2022-11-21T17:25:21;6.90;99.90
360;DHT22;168;48.872;9.226;2022-11-21T17:27:51;6.90;99.90
360;DHT22;168;48.872;9.226;2022-11-21T17:30:18;6.90;99.90
360;DHT22;168;48.872;9.226;2022-11-21T17:32:46;6.90;99.90
360;DHT22;168;48.872;9.226;2022-11-21T17:35:13;6.80;99.90
360;DHT22;168;48.872;9.226;2022-11-21T17:37:41;6.80;99.90
360;DHT22;168;48.872;9.226;2022-11-21T17:40:09;6.80;99.90
360;DHT22;168;48.872;9.226;2022-11-21T17:42:37;6.80;99.90
360;DHT22;168;48.872;9.226;2022-11-21T17:45:08;6.80;99.90
360;DHT22;168;48.872;9.226;2022-11-21T17:47:35;6.70;99.90
360;DHT22;168;48.872;9.226;2022-11-21T17:50:03;6.70;99.90
360;DHT22;168;48.872;9.226;2022-11-21T17:52:33;6.80;99.90
360;DHT22;168;48.872;9.226;2022-11-21T17:55:01;6.80;99.90
360;DHT22;168;48.872;9.226;2022-11-21T17:57:28;6.70;99.90
360;DHT22;168;48.872;9.226;2022-11-21T17:59:56;6.70;99.90
360;DHT22;168;48.872;9.226;2022-11-21T18:02:24;6.70;99.90
360;DHT22;168;48.872;9.226;2022-11-21T18:04:52;6.80;99.90
360;DHT22;168;48.872;9.226;2022-11-21T18:07:21;6.80;99.90
360;DHT22;168;48.872;9.226;2022-11-21T18:09:52;6.70;99.90